createdAt,value
2019-03-04T00:01:32.619Z,99072.14
2019-03-04T00:04:04.353Z,99072.13
2019-03-04T00:06:36.007Z,99072.11
2019-03-04T00:09:10.935Z,99070.80
2019-03-04T00:11:43.254Z,99074.38
2019-03-04T00:14:16.485Z,99075.09
2019-03-04T00:16:48.062Z,99075.09
2019-03-04T00:19:19.791Z,99084.56
2019-03-04T00:21:51.756Z,99097.09
2019-03-04T00:24:23.153Z,99097.09
2019-03-04T00:26:54.908Z,99100.78
2019-03-04T00:29:28.030Z,99102.30
2019-03-04T00:31:59.511Z,99100.84
2019-03-04T00:34:31.946Z,99100.84
2019-03-04T00:37:05.079Z,99105.41
2019-03-04T00:39:36.696Z,99107.67
2019-03-04T00:42:08.233Z,99114.11
2019-03-04T00:44:39.729Z,99107.41
2019-03-04T00:47:11.325Z,99107.41
2019-03-04T00:49:42.894Z,99119.57
2019-03-04T00:52:14.575Z,99123.08
2019-03-04T00:54:46.087Z,99121.62
2019-03-04T00:57:19.116Z,99118.78
2019-03-04T00:59:50.631Z,99120.59
2019-03-04T01:02:22.257Z,99120.59
2019-03-04T01:04:55.856Z,99109.62
2019-03-04T01:07:27.480Z,99113.16
2019-03-04T01:09:59.401Z,99113.16
2019-03-04T01:12:30.737Z,99116.58
2019-03-04T01:15:02.224Z,99123.98
2019-03-04T01:17:34.195Z,99123.98
2019-03-04T01:20:06.798Z,99125.23
2019-03-04T01:22:38.533Z,99133.09
2019-03-04T01:25:12.165Z,99123.08
2019-03-04T01:27:43.702Z,99115.91
2019-03-04T01:30:20.649Z,99115.91
2019-03-04T01:32:52.702Z,99128.36
2019-03-04T01:35:24.452Z,99130.75
2019-03-04T01:37:56.112Z,99129.15
2019-03-04T01:40:27.883Z,99130.13
2019-03-04T01:42:59.364Z,99130.13
2019-03-04T01:45:30.757Z,99140.25
2019-03-04T01:48:02.049Z,99144.67
2019-03-04T01:50:33.417Z,99144.67
2019-03-04T01:53:05.397Z,99163.13
2019-03-04T01:55:37.224Z,99166.15
2019-03-04T01:58:08.404Z,99166.15
2019-03-04T02:00:40.175Z,99174.65
2019-03-04T02:03:11.977Z,99178.30
2019-03-04T02:05:44.867Z,99178.30
2019-03-04T02:08:16.723Z,99190.62
2019-03-04T02:10:50.606Z,99190.62
2019-03-04T02:13:22.147Z,99186.53
2019-03-04T02:15:53.524Z,99192.24
2019-03-04T02:18:25.218Z,99203.45
2019-03-04T02:20:56.417Z,99203.45
2019-03-04T02:23:27.898Z,99208.82
2019-03-04T02:26:34.507Z,99206.97
2019-03-04T02:29:06.658Z,99215.04
2019-03-04T02:31:37.858Z,99216.73
2019-03-04T02:34:09.209Z,99216.73
2019-03-04T02:36:40.649Z,99226.06
2019-03-04T02:39:12.293Z,99239.53
2019-03-04T02:41:44.042Z,99235.06
2019-03-04T02:44:19.625Z,99244.30
2019-03-04T02:46:51.448Z,99244.30
2019-03-04T02:49:25.035Z,99242.98
2019-03-04T02:51:56.340Z,99242.98
2019-03-04T02:54:27.843Z,99244.36
2019-03-04T02:56:59.236Z,99256.10
2019-03-04T02:59:30.826Z,99249.41
2019-03-04T03:02:02.060Z,99247.91
2019-03-04T03:04:34.605Z,99247.91
2019-03-04T03:07:06.574Z,99262.89
2019-03-04T03:09:38.168Z,99268.50
2019-03-04T03:12:10.364Z,99260.17
2019-03-04T03:14:42.288Z,99262.42
2019-03-04T03:17:15.802Z,99256.18
2019-03-04T03:19:47.358Z,99261.69
2019-03-04T03:22:18.866Z,99276.32
2019-03-04T03:24:50.529Z,99276.32
2019-03-04T03:27:23.617Z,99265.42
2019-03-04T03:29:56.749Z,99268.89
2019-03-04T03:32:28.182Z,99269.91
2019-03-04T03:34:59.885Z,99269.91
2019-03-04T03:37:31.511Z,99280.56
2019-03-04T03:40:03.412Z,99288.89
2019-03-04T03:42:34.911Z,99292.00
2019-03-04T03:45:07.286Z,99281.10
2019-03-04T03:47:39.161Z,99281.10
2019-03-04T03:50:12.410Z,99276.73
2019-03-04T03:52:43.992Z,99280.25
2019-03-04T03:55:16.175Z,99282.02
2019-03-04T03:57:48.338Z,99282.02
2019-03-04T04:00:20.348Z,99286.33
2019-03-04T04:02:52.311Z,99280.82
2019-03-04T04:05:24.248Z,99284.28
2019-03-04T04:07:55.600Z,99288.34
2019-03-04T04:10:27.486Z,99288.34
2019-03-04T04:12:59.097Z,99293.50
2019-03-04T04:15:31.116Z,99287.16
2019-03-04T04:18:09.453Z,99289.05
2019-03-04T04:20:41.447Z,99287.23
2019-03-04T04:23:13.128Z,99284.58
2019-03-04T04:25:45.028Z,99285.58
2019-03-04T04:28:17.091Z,99285.50
2019-03-04T04:30:48.820Z,99285.50
2019-03-04T04:33:20.411Z,99274.58
2019-03-04T04:35:52.739Z,99274.58
2019-03-04T04:38:24.729Z,99283.41
2019-03-04T04:40:56.816Z,99283.41
2019-03-04T04:43:28.518Z,99281.56
2019-03-04T04:46:00.215Z,99281.56
2019-03-04T04:48:31.838Z,99288.68
2019-03-04T04:51:03.231Z,99288.68
2019-03-04T04:53:34.837Z,99290.77
2019-03-04T04:56:10.731Z,99291.45
2019-03-04T04:58:42.333Z,99291.87
2019-03-04T05:01:14.067Z,99288.11
2019-03-04T05:03:45.690Z,99279.84
2019-03-04T05:06:17.422Z,99279.84
2019-03-04T05:08:49.087Z,99271.74
2019-03-04T05:11:20.920Z,99268.80
2019-03-04T05:13:53.006Z,99267.13
2019-03-04T05:16:25.195Z,99267.13
2019-03-04T05:18:57.107Z,99263.58
2019-03-04T05:21:30.546Z,99260.50
2019-03-04T05:24:02.182Z,99247.59
2019-03-04T05:26:33.595Z,99236.12
2019-03-04T05:29:05.493Z,99237.14
2019-03-04T05:31:37.285Z,99240.83
2019-03-04T05:34:09.010Z,99240.83
2019-03-04T05:36:41.188Z,99244.66
2019-03-04T05:39:12.920Z,99232.88
2019-03-04T05:41:44.594Z,99232.88
2019-03-04T05:44:16.279Z,99236.44
2019-03-04T05:46:47.844Z,99236.44
2019-03-04T05:49:19.588Z,99229.04
2019-03-04T05:51:51.221Z,99228.19
2019-03-04T05:54:22.966Z,99226.88
2019-03-04T05:56:54.487Z,99218.09
2019-03-04T05:59:26.447Z,99216.39
2019-03-04T06:02:05.968Z,99214.69
2019-03-04T06:04:38.337Z,99214.69
2019-03-04T06:07:28.533Z,99202.30
2019-03-04T06:10:00.740Z,99202.05
2019-03-04T06:12:32.582Z,99187.48
2019-03-04T06:15:04.269Z,99181.99
2019-03-04T06:17:35.651Z,99181.99
2019-03-04T06:20:07.462Z,99173.37
2019-03-04T06:22:38.973Z,99175.99
2019-03-04T06:25:14.238Z,99175.99
2019-03-04T06:27:45.790Z,99175.74
2019-03-04T06:30:20.033Z,99175.41
2019-03-04T06:32:51.944Z,99171.88
2019-03-04T06:35:23.693Z,99171.88
2019-03-04T06:37:55.460Z,99170.03
2019-03-04T06:40:27.182Z,99159.25
2019-03-04T06:42:59.028Z,99158.09
2019-03-04T06:45:30.950Z,99148.33
2019-03-04T06:48:02.632Z,99161.75
2019-03-04T06:50:49.417Z,99159.83
2019-03-04T06:53:40.047Z,99165.87
2019-03-04T06:56:28.303Z,99161.93
2019-03-04T06:59:06.500Z,99161.93
2019-03-04T07:01:47.632Z,99144.90
2019-03-04T07:04:30.710Z,99145.08
2019-03-04T07:07:02.514Z,99141.53
2019-03-04T07:09:34.139Z,99135.43
2019-03-04T07:12:05.763Z,99135.43
2019-03-04T07:14:38.179Z,99118.34
2019-03-04T07:17:09.881Z,99118.34
2019-03-04T07:19:42.375Z,99116.72
2019-03-04T07:22:13.701Z,99110.37
2019-03-04T07:24:45.341Z,99110.37
2019-03-04T07:27:16.790Z,99101.55
2019-03-04T07:29:48.194Z,99101.83
2019-03-04T07:32:19.507Z,99095.89
2019-03-04T07:34:51.282Z,99091.12
2019-03-04T07:37:22.735Z,99087.02
2019-03-04T07:39:54.540Z,99087.02
2019-03-04T07:42:26.350Z,99083.94
2019-03-04T07:44:58.151Z,99073.67
2019-03-04T07:47:30.559Z,99064.27
2019-03-04T07:50:02.204Z,99064.27
2019-03-04T07:52:35.855Z,99047.84
2019-03-04T07:55:07.725Z,99045.63
2019-03-04T07:57:40.407Z,99045.63
2019-03-04T08:00:13.677Z,99037.17
2019-03-04T08:02:45.305Z,99041.41
2019-03-04T08:05:16.841Z,99045.12
2019-03-04T08:07:50.711Z,99036.88
2019-03-04T08:11:17.753Z,99036.88
2019-03-04T08:13:53.326Z,99032.75
2019-03-04T08:16:24.942Z,99020.09
2019-03-04T08:18:57.415Z,99016.95
2019-03-04T08:21:29.827Z,99010.41
2019-03-04T08:24:01.173Z,99010.41
2019-03-04T08:26:32.705Z,99000.98
2019-03-04T08:29:04.101Z,98998.06
2019-03-04T08:31:35.966Z,99000.61
2019-03-04T08:34:09.324Z,98991.28
2019-03-04T08:36:41.633Z,98991.28
2019-03-04T08:39:13.411Z,98985.23
2019-03-04T08:41:44.772Z,98974.13
2019-03-04T08:44:16.137Z,98967.22
2019-03-04T08:46:47.396Z,98963.27
2019-03-04T08:49:19.041Z,98972.70
2019-03-04T08:51:51.369Z,98964.91
2019-03-04T08:54:23.047Z,98964.91
2019-03-04T08:57:03.595Z,98953.08
2019-03-04T08:59:29.798Z,98953.08
2019-03-04T09:02:01.427Z,98954.81
2019-03-04T09:04:32.926Z,98960.60
2019-03-04T09:07:04.817Z,98947.95
2019-03-04T09:09:37.411Z,98943.20
2019-03-04T09:12:08.764Z,98933.25
2019-03-04T09:14:40.475Z,98930.62
2019-03-04T09:17:12.210Z,98911.69
2019-03-04T09:19:43.492Z,98915.50
2019-03-04T09:22:15.511Z,98910.39
2019-03-04T09:24:47.159Z,98905.84
2019-03-04T09:27:18.787Z,98905.84
2019-03-04T09:29:50.833Z,98897.81
2019-03-04T09:32:22.242Z,98898.53
2019-03-04T09:34:53.848Z,98905.47
2019-03-04T09:37:25.579Z,98901.34
2019-03-04T09:39:57.097Z,98890.68
2019-03-04T09:42:29.140Z,98876.05
2019-03-04T09:45:01.017Z,98876.05
2019-03-04T09:47:32.991Z,98863.34
2019-03-04T09:50:04.840Z,98860.13
2019-03-04T09:52:36.569Z,98860.13
2019-03-04T09:55:08.950Z,98863.81
2019-03-04T09:57:40.970Z,98863.81
2019-03-04T10:00:30.576Z,98860.73
2019-03-04T10:03:22.456Z,98848.13
2019-03-04T10:06:24.963Z,98841.23
2019-03-04T10:09:07.930Z,98841.23
2019-03-04T10:12:33.590Z,98839.80
2019-03-04T10:15:15.228Z,98837.49
2019-03-04T10:18:12.597Z,98835.00
2019-03-04T10:21:33.912Z,98835.00
2019-03-04T10:24:42.351Z,98833.20
2019-03-04T10:28:10.300Z,98833.20
2019-03-04T10:31:11.062Z,98830.33
2019-03-04T10:34:20.496Z,98831.05
2019-03-04T10:37:26.466Z,98827.58
2019-03-04T10:40:40.794Z,98827.58
2019-03-04T10:43:29.477Z,98828.55
2019-03-04T10:46:23.710Z,98822.32
2019-03-04T10:48:55.014Z,98829.39
2019-03-04T10:51:26.276Z,98827.70
2019-03-04T10:53:57.553Z,98830.10
2019-03-04T10:56:29.302Z,98832.02
2019-03-04T10:59:00.882Z,98837.49
2019-03-04T11:01:32.453Z,98828.89
2019-03-04T11:04:04.073Z,98829.00
2019-03-04T11:06:35.956Z,98829.98
2019-03-04T11:09:09.203Z,98832.97
2019-03-04T11:11:41.967Z,98829.39
2019-03-04T11:14:13.733Z,98827.94
2019-03-04T11:16:46.244Z,98829.14
2019-03-04T11:19:17.819Z,98824.47
2019-03-04T11:21:49.752Z,98820.63
2019-03-04T11:24:21.198Z,98819.31
2019-03-04T11:26:53.204Z,98818.13
2019-03-04T11:29:24.904Z,98816.55
2019-03-04T11:31:56.946Z,98816.47
2019-03-04T11:34:28.733Z,98811.31
2019-03-04T11:37:00.751Z,98809.63
2019-03-04T11:39:54.277Z,98809.63
2019-03-04T11:42:26.306Z,98814.17
2019-03-04T11:44:57.970Z,98807.45
2019-03-04T11:47:29.686Z,98800.51
2019-03-04T11:50:01.278Z,98797.63
2019-03-04T11:52:33.550Z,98798.61
2019-03-04T11:55:06.412Z,98798.61
2019-03-04T11:57:38.582Z,98799.08
2019-03-04T12:00:15.157Z,98809.25
2019-03-04T12:02:47.217Z,98807.56
2019-03-04T12:05:20.084Z,98807.56
2019-03-04T12:07:52.213Z,98804.70
2019-03-04T12:10:24.178Z,98804.70
2019-03-04T12:12:55.891Z,98807.80
2019-03-04T12:15:27.631Z,98807.80
2019-03-04T12:17:59.567Z,98810.07
2019-03-04T12:20:31.223Z,98819.86
2019-03-04T12:23:02.976Z,98812.45
2019-03-04T12:25:35.082Z,98812.45
2019-03-04T12:28:06.582Z,98826.70
2019-03-04T12:30:38.305Z,98831.23
2019-03-04T12:33:11.070Z,98837.42
2019-03-04T12:35:42.783Z,98835.60
2019-03-04T12:38:14.313Z,98843.37
2019-03-04T12:40:46.164Z,98849.48
2019-03-04T12:43:17.865Z,98851.38
2019-03-04T12:45:51.175Z,98854.98
2019-03-04T12:48:23.127Z,98854.73
2019-03-04T12:50:54.951Z,98848.98
2019-03-04T12:53:26.485Z,98848.98
2019-03-04T12:55:58.548Z,98861.25
2019-03-04T12:58:30.018Z,98860.20
2019-03-04T13:01:02.353Z,98856.14
2019-03-04T13:03:33.969Z,98858.20
2019-03-04T13:06:08.104Z,98863.66
2019-03-04T13:08:40.156Z,98877.69
2019-03-04T13:11:12.925Z,98871.17
2019-03-04T13:13:44.472Z,98872.37
2019-03-04T13:16:16.567Z,98872.37
2019-03-04T13:18:48.173Z,98876.55
2019-03-04T13:21:20.375Z,98870.34
2019-03-04T13:23:52.203Z,98870.34
2019-03-04T13:26:24.176Z,98875.00
2019-03-04T13:28:55.678Z,98879.20
2019-03-04T13:31:27.337Z,98882.27
2019-03-04T13:33:59.396Z,98889.41
2019-03-04T13:36:31.147Z,98889.57
2019-03-04T13:39:02.649Z,98896.55
2019-03-04T13:41:38.464Z,98900.02
2019-03-04T13:44:10.145Z,98897.88
2019-03-04T13:46:41.947Z,98905.61
2019-03-04T13:49:15.354Z,98905.61
2019-03-04T13:51:47.327Z,98909.11
2019-03-04T13:54:19.814Z,98912.69
2019-03-04T13:56:51.640Z,98910.36
2019-03-04T13:59:23.458Z,98911.34
2019-03-04T14:01:55.108Z,98906.62
2019-03-04T14:04:26.365Z,98905.01
2019-03-04T14:06:58.111Z,98912.62
2019-03-04T14:09:29.801Z,98910.36
2019-03-04T14:12:01.730Z,98918.94
2019-03-04T14:14:35.757Z,98916.78
2019-03-04T14:17:07.776Z,98921.30
2019-03-04T14:19:39.644Z,98929.85
2019-03-04T14:22:11.326Z,98933.22
2019-03-04T14:24:43.121Z,98931.33
2019-03-04T14:27:16.537Z,98931.99
2019-03-04T14:29:48.306Z,98942.72
2019-03-04T14:32:20.147Z,98952.26
2019-03-04T14:34:51.635Z,98952.26
2019-03-04T14:37:23.155Z,98963.03
2019-03-04T14:39:54.834Z,98957.13
2019-03-04T14:42:26.592Z,98957.13
2019-03-04T14:44:59.159Z,98963.30
2019-03-04T14:47:31.094Z,98963.30
2019-03-04T14:50:09.537Z,98960.95
2019-03-04T14:52:36.099Z,98972.15
2019-03-04T14:55:09.342Z,98971.66
2019-03-04T14:57:41.078Z,98971.66
2019-03-04T15:00:25.314Z,98983.39
2019-03-04T15:02:57.566Z,98984.64
2019-03-04T15:05:29.511Z,98982.52
2019-03-04T15:08:01.841Z,98982.20
2019-03-04T15:10:33.772Z,98993.09
2019-03-04T15:13:05.651Z,99004.26
2019-03-04T15:15:37.274Z,99023.42
2019-03-04T15:18:09.332Z,99029.84
2019-03-04T15:20:41.021Z,99029.84
2019-03-04T15:23:12.955Z,99034.15
2019-03-04T15:25:44.869Z,99027.33
2019-03-04T15:28:18.585Z,99024.94
2019-03-04T15:30:52.154Z,99032.63
2019-03-04T15:33:23.991Z,99032.70
2019-03-04T15:35:56.618Z,99007.92
2019-03-04T15:38:28.621Z,99007.92
2019-03-04T15:41:00.416Z,98993.17
2019-03-04T15:43:32.437Z,99001.74
2019-03-04T15:46:04.330Z,99001.74
2019-03-04T15:48:36.359Z,99021.23
2019-03-04T15:51:07.997Z,99004.94
2019-03-04T15:53:39.597Z,99004.94
2019-03-04T15:56:11.301Z,99024.01
2019-03-04T15:58:44.360Z,99026.37
2019-03-04T16:01:16.659Z,99038.98
2019-03-04T16:03:48.600Z,99046.48
2019-03-04T16:06:20.584Z,99038.72
2019-03-04T16:08:52.459Z,99023.09
2019-03-04T16:11:23.982Z,99021.11
2019-03-04T16:13:56.282Z,99020.27
2019-03-04T16:16:29.288Z,99024.31
2019-03-04T16:19:01.071Z,99027.92
2019-03-04T16:21:32.472Z,99027.92
2019-03-04T16:24:03.970Z,99026.45
2019-03-04T16:26:35.939Z,99025.91
2019-03-04T16:29:07.881Z,99036.55
2019-03-04T16:31:39.426Z,99039.92
2019-03-04T16:34:13.678Z,99045.98
2019-03-04T16:36:45.191Z,99045.98
2019-03-04T16:39:20.630Z,99051.89
2019-03-04T16:41:52.376Z,99051.89
2019-03-04T16:44:23.825Z,99060.88
2019-03-04T16:46:55.805Z,99074.88
2019-03-04T16:49:27.407Z,99108.14
2019-03-04T16:51:59.199Z,99112.23
2019-03-04T16:54:30.784Z,99109.74
2019-03-04T16:57:04.547Z,99117.28
2019-03-04T16:59:35.954Z,99105.51
2019-03-04T17:02:07.703Z,99105.51
2019-03-04T17:04:39.567Z,99083.44
2019-03-04T17:07:11.810Z,99067.55
2019-03-04T17:09:43.799Z,99053.34
2019-03-04T17:12:15.614Z,99053.34
2019-03-04T17:14:47.501Z,99058.02
2019-03-04T17:17:19.189Z,99055.59
2019-03-04T17:19:54.309Z,99053.98
2019-03-04T17:22:25.887Z,99057.74
2019-03-04T17:24:57.983Z,99056.15
2019-03-04T17:27:29.744Z,99054.97
2019-03-04T17:30:01.400Z,99063.44
2019-03-04T17:32:33.309Z,99063.44
2019-03-04T17:35:05.884Z,99053.45
2019-03-04T17:37:38.621Z,99074.23
2019-03-04T17:40:11.737Z,99074.23
2019-03-04T17:42:43.654Z,99074.52
2019-03-04T17:45:17.057Z,99074.52
2019-03-04T17:47:48.725Z,99068.08
2019-03-04T17:50:27.062Z,99064.77
2019-03-04T17:52:59.022Z,99067.92
2019-03-04T17:55:30.860Z,99079.69
2019-03-04T17:58:02.519Z,99079.69
2019-03-04T18:00:34.785Z,99085.28
2019-03-04T18:03:06.934Z,99084.50
2019-03-04T18:05:38.625Z,99084.50
2019-03-04T18:08:10.588Z,99095.52
2019-03-04T18:10:42.405Z,99108.38
2019-03-04T18:13:14.622Z,99106.31
2019-03-04T18:15:49.116Z,99107.34
2019-03-04T18:18:20.585Z,99097.70
2019-03-04T18:20:52.614Z,99091.48
2019-03-04T18:23:24.155Z,99088.55
2019-03-04T18:26:06.086Z,99066.13
2019-03-04T18:28:57.723Z,99056.98
2019-03-04T18:31:59.382Z,99056.98
2019-03-04T18:35:17.809Z,99058.14
2019-03-04T18:38:30.101Z,99061.47
2019-03-04T18:41:48.417Z,99061.47
2019-03-04T18:44:57.430Z,99061.83
2019-03-04T18:48:10.142Z,99061.69
2019-03-04T18:50:42.485Z,99056.89
2019-03-04T18:53:15.036Z,99054.66
2019-03-04T18:55:46.670Z,99054.66
2019-03-04T18:58:18.418Z,99052.16
2019-03-04T19:00:50.220Z,99061.09
2019-03-04T19:03:21.990Z,99066.05
2019-03-04T19:05:53.856Z,99071.06
2019-03-04T19:08:26.365Z,99072.77
2019-03-04T19:10:57.733Z,99073.23
2019-03-04T19:13:30.999Z,99077.27
2019-03-04T19:16:02.757Z,99065.39
2019-03-04T19:18:36.210Z,99065.39
2019-03-04T19:21:07.966Z,99059.30
2019-03-04T19:23:39.716Z,99059.30
2019-03-04T19:26:12.564Z,99067.16
2019-03-04T19:28:43.977Z,99065.31
2019-03-04T19:31:15.787Z,99065.31
2019-03-04T19:33:47.484Z,99065.53
2019-03-04T19:36:19.299Z,99052.75
2019-03-04T19:38:50.912Z,99053.08
2019-03-04T19:41:22.854Z,99040.44
2019-03-04T19:43:54.564Z,99040.44
2019-03-04T19:46:26.221Z,99027.59
2019-03-04T19:48:58.194Z,99031.05
2019-03-04T19:51:30.013Z,99031.19
2019-03-04T19:54:02.001Z,99031.02
2019-03-04T19:56:33.825Z,99031.02
2019-03-04T19:59:05.440Z,99044.58
2019-03-04T20:01:37.396Z,99044.58
2019-03-04T20:04:09.049Z,99036.21
2019-03-04T20:06:40.602Z,99036.21
2019-03-04T20:09:12.469Z,99023.39
2019-03-04T20:11:44.538Z,99023.39
2019-03-04T20:14:16.224Z,99016.09
2019-03-04T20:16:48.056Z,99012.53
2019-03-04T20:19:19.841Z,99012.53
2019-03-04T20:21:51.697Z,99015.34
2019-03-04T20:24:23.480Z,99018.41
2019-03-04T20:26:57.238Z,99018.41
2019-03-04T20:29:29.067Z,99023.34
2019-03-04T20:32:01.402Z,99022.45
2019-03-04T20:34:32.874Z,99024.64
2019-03-04T20:37:04.638Z,99025.91
2019-03-04T20:39:36.391Z,99030.91
2019-03-04T20:42:08.342Z,99023.66
2019-03-04T20:44:39.944Z,99034.11
2019-03-04T20:47:11.800Z,99026.81
2019-03-04T20:49:43.487Z,99023.69
2019-03-04T20:52:15.530Z,99012.69
2019-03-04T20:54:47.162Z,99012.69
2019-03-04T20:57:20.754Z,99018.30
2019-03-04T20:59:52.672Z,99018.30
2019-03-04T21:02:24.727Z,99016.07
2019-03-04T21:04:56.307Z,99015.13
2019-03-04T21:07:28.095Z,99015.13
2019-03-04T21:09:59.742Z,99005.52
2019-03-04T21:12:33.040Z,99001.07
2019-03-04T21:15:05.073Z,98997.99
2019-03-04T21:17:37.417Z,98997.99
2019-03-04T21:20:09.997Z,99000.45
2019-03-04T21:22:42.668Z,98995.77
2019-03-04T21:25:37.657Z,98995.77
2019-03-04T21:28:13.141Z,99000.91
2019-03-04T21:31:25.173Z,98995.84
2019-03-04T21:34:34.891Z,98994.92
2019-03-04T21:37:15.443Z,99000.14
2019-03-04T21:39:48.418Z,99001.06
2019-03-04T21:42:31.290Z,98994.72
2019-03-04T21:45:51.569Z,98994.72
2019-03-04T21:48:39.286Z,98995.03
2019-03-04T21:51:38.432Z,98999.95
2019-03-04T21:54:10.877Z,98997.56
2019-03-04T21:57:13.093Z,98997.56
2019-03-04T21:59:44.855Z,98996.80
2019-03-04T22:02:24.327Z,98996.88
2019-03-04T22:04:56.540Z,98983.17
2019-03-04T22:07:28.997Z,98983.17
2019-03-04T22:10:00.854Z,98984.70
2019-03-04T22:12:32.580Z,98994.84
2019-03-04T22:15:03.964Z,98994.84
2019-03-04T22:17:37.025Z,98991.39
2019-03-04T22:20:09.789Z,98988.63
2019-03-04T22:22:41.545Z,98975.98
2019-03-04T22:25:13.490Z,98975.98
2019-03-04T22:27:45.667Z,98976.91
2019-03-04T22:30:18.491Z,98976.91
2019-03-04T22:32:50.262Z,98973.83
2019-03-04T22:35:22.227Z,98970.69
2019-03-04T22:37:53.976Z,98971.15
2019-03-04T22:40:25.793Z,98970.14
2019-03-04T22:42:57.415Z,98970.14
2019-03-04T22:45:29.131Z,98966.22
2019-03-04T22:48:00.867Z,98970.97
2019-03-04T22:50:32.379Z,98977.13
2019-03-04T22:53:04.017Z,98977.13
2019-03-04T22:55:37.450Z,98981.02
2019-03-04T22:58:09.244Z,98986.39
2019-03-04T23:01:30.032Z,98982.80
2019-03-04T23:04:32.174Z,98982.80
2019-03-04T23:07:12.857Z,98986.45
2019-03-04T23:09:54.557Z,98971.55
2019-03-04T23:12:31.465Z,98971.55
2019-03-04T23:15:03.248Z,98973.83
2019-03-04T23:17:35.954Z,98973.83
2019-03-04T23:20:07.773Z,98977.21
2019-03-04T23:22:39.152Z,98974.54
2019-03-04T23:25:11.845Z,98988.15
2019-03-04T23:27:43.352Z,98988.15
2019-03-04T23:30:16.111Z,98983.34
2019-03-04T23:32:47.581Z,98987.27
2019-03-04T23:35:19.226Z,98987.27
2019-03-04T23:37:50.974Z,98989.41
2019-03-04T23:40:22.629Z,98989.41
2019-03-04T23:42:54.464Z,98999.25
2019-03-04T23:45:26.236Z,98999.25
2019-03-04T23:47:57.824Z,98993.19
2019-03-04T23:50:29.269Z,98995.34
2019-03-04T23:53:01.623Z,98996.64
2019-03-04T23:55:33.387Z,99008.34
2019-03-04T23:58:05.317Z,99008.34
